Time;durP1;ratioP1;P1;durP2;ratioP2;P2;SDS_P1;SDS_P2;PMS_P1;PMS_P2;Temp;Humidity;BMP_temperature;BMP_pressure;BME280_temperature;BME280_humidity;BME280_pressure;Samples;Min_cycle;Max_cycle;Signal;HPM_P1;HPM_P2
2021/06/10 05:09:06;;;;;;;12.55;9.20;;;;;;;13.85;82.01;99219.06;4937853;23;20540;-79
2021/06/10 05:11:32;;;;;;;16.73;10.25;;;;;;;13.98;82.50;99227.38;4897183;29;20040;-80
2021/06/10 05:13:58;;;;;;;17.98;9.63;;;;;;;14.00;82.32;99230.56;4898236;29;20079;-81
2021/06/10 05:16:28;;;;;;;12.63;8.75;;;;;;;14.10;81.76;99246.63;4898378;29;20062;-84
2021/06/10 05:18:55;;;;;;;16.95;8.27;;;;;;;14.16;81.77;99239.00;4891724;29;20100;-81
2021/06/10 05:21:21;;;;;;;12.05;8.63;;;;;;;14.09;81.17;99234.84;4908260;29;20048;-80
2021/06/10 05:23:47;;;;;;;10.43;8.18;;;;;;;14.08;81.23;99222.25;4898341;29;20057;-88
2021/06/10 05:26:13;;;;;;;12.57;8.50;;;;;;;14.12;81.43;99233.38;4896817;29;20529;-81
2021/06/10 05:28:39;;;;;;;10.60;7.43;;;;;;;14.17;81.75;99235.91;4904057;29;20407;-80
2021/06/10 05:31:09;;;;;;;13.45;8.10;;;;;;;14.21;81.59;99245.09;4900748;29;20399;-79
2021/06/10 05:33:36;;;;;;;12.70;7.85;;;;;;;14.18;81.24;99237.53;4898022;29;20048;-81
2021/06/10 05:36:04;;;;;;;13.43;8.38;;;;;;;14.28;81.68;99239.03;4897813;29;20044;-80
2021/06/10 05:38:30;;;;;;;12.00;8.07;;;;;;;14.11;81.56;99220.78;4897542;29;20047;-85
2021/06/10 05:40:56;;;;;;;12.60;7.63;;;;;;;14.15;81.40;99215.41;4897122;29;20413;-90
2021/06/10 05:43:23;;;;;;;12.13;8.20;;;;;;;14.21;81.62;99241.53;4899868;29;20140;-79
2021/06/10 05:45:52;;;;;;;15.93;8.10;;;;;;;14.22;81.58;99243.94;4873009;29;20039;-88
2021/06/10 05:48:19;;;;;;;12.38;7.00;;;;;;;14.31;81.09;99252.13;4915615;29;20070;-80
2021/06/10 05:50:46;;;;;;;11.15;7.35;;;;;;;14.09;81.25;99232.09;4909651;29;20111;-80
2021/06/10 05:53:15;;;;;;;8.88;7.03;;;;;;;14.24;81.31;99249.13;4897369;29;20051;-80
2021/06/10 05:55:43;;;;;;;9.48;7.30;;;;;;;14.20;81.27;99251.72;4896740;29;20045;-84
2021/06/10 05:58:09;;;;;;;9.20;6.90;;;;;;;14.21;81.56;99250.59;4896707;29;20052;-79
2021/06/10 06:00:35;;;;;;;10.93;7.43;;;;;;;14.22;81.78;99254.94;4896120;29;20040;-80
2021/06/10 06:03:03;;;;;;;10.83;7.63;;;;;;;14.21;81.51;99258.03;4897200;29;20055;-85
2021/06/10 06:05:31;;;;;;;13.73;8.40;;;;;;;14.20;81.87;99256.41;4897054;29;20044;-81
2021/06/10 06:07:58;;;;;;;13.75;8.02;;;;;;;14.04;81.60;99234.28;4896091;29;20064;-76
2021/06/10 06:10:24;;;;;;;10.82;7.93;;;;;;;14.21;81.98;99256.09;4894513;29;20180;-75
2021/06/10 06:12:52;;;;;;;14.27;7.93;;;;;;;14.28;82.14;99256.34;4901527;29;20045;-75
2021/06/10 06:15:19;;;;;;;11.45;7.20;;;;;;;14.23;81.65;99256.53;4895128;29;20747;-75
2021/06/10 06:17:47;;;;;;;13.88;7.40;;;;;;;14.23;81.73;99251.03;4895261;29;20067;-76
2021/06/10 06:20:14;;;;;;;10.05;5.90;;;;;;;14.29;80.46;99268.13;4896171;29;20124;-75
2021/06/10 06:22:43;;;;;;;9.50;6.53;;;;;;;14.34;81.11;99265.97;4895853;29;20089;-76
2021/06/10 06:25:11;;;;;;;11.98;6.20;;;;;;;14.32;80.81;99268.25;4894652;29;20095;-76
2021/06/10 06:27:39;;;;;;;10.32;6.30;;;;;;;14.36;80.78;99270.34;4894823;29;20072;-75
2021/06/10 06:30:06;;;;;;;9.80;6.05;;;;;;;14.32;80.93;99271.00;4896198;29;20528;-82
2021/06/10 06:32:34;;;;;;;11.40;7.05;;;;;;;14.32;80.82;99276.50;4894405;29;20044;-74
2021/06/10 06:35:00;;;;;;;11.27;7.70;;;;;;;14.28;81.09;99275.59;4904561;29;20032;-74
2021/06/10 06:37:27;;;;;;;;;;;;;;;14.30;80.83;99280.72;4910868;29;20044;-73
2021/06/10 06:39:53;;;;;;;12.40;7.53;;;;;;;14.23;80.91;99283.22;4900279;29;19946;-74
2021/06/10 06:56:04;;;;;;;12.45;8.52;;;;;;;13.99;81.47;99300.44;4838080;29;20048;-79
2021/06/10 06:58:32;;;;;;;15.32;8.60;;;;;;;13.92;81.31;99306.47;4868814;29;20040;-83
2021/06/10 07:00:58;;;;;;;15.43;9.18;;;;;;;13.94;81.87;99304.19;4877320;29;20044;-80
2021/06/10 07:03:26;;;;;;;13.63;8.95;;;;;;;13.91;81.90;99302.13;4870527;29;20041;-73
2021/06/10 07:05:55;;;;;;;14.10;9.07;;;;;;;13.86;81.42;99314.09;4862404;29;20153;-74
2021/06/10 07:08:21;;;;;;;13.07;9.90;;;;;;;13.86;81.72;99314.09;4870709;29;20699;-73
2021/06/10 07:10:54;;;;;;;16.13;10.30;;;;;;;13.77;82.03;99315.28;4868723;29;20038;-75
2021/06/10 07:13:22;;;;;;;16.33;10.75;;;;;;;13.76;82.09;99303.50;4859007;29;20038;-81
2021/06/10 07:15:50;;;;;;;13.80;9.82;;;;;;;13.76;82.00;99310.94;4857890;29;20052;-76
2021/06/10 07:18:18;;;;;;;17.92;10.10;;;;;;;13.70;82.19;99324.06;4855569;29;20037;-74
2021/06/10 07:20:45;;;;;;;14.57;9.23;;;;;;;13.72;82.13;99312.75;4860615;29;20469;-75
2021/06/10 07:23:11;;;;;;;17.60;10.40;;;;;;;13.68;82.57;99315.38;4857746;29;20076;-75
2021/06/10 07:25:37;;;;;;;14.27;10.10;;;;;;;13.63;82.23;99307.31;4856916;29;20069;-73
2021/06/10 07:28:04;;;;;;;;;;;;;;;13.72;83.03;99312.75;4861058;29;20699;-73
2021/06/10 07:30:31;;;;;;;15.45;11.15;;;;;;;13.58;82.69;99313.00;4879206;29;19987;-74
2021/06/10 07:32:57;;;;;;;22.23;12.48;;;;;;;13.57;83.42;99314.13;4865176;29;20041;-73
2021/06/10 07:35:24;;;;;;;21.80;12.73;;;;;;;13.64;83.47;99311.66;4875684;29;20052;-73
2021/06/10 07:37:52;;;;;;;21.90;13.00;;;;;;;13.66;83.18;99314.88;4858993;29;20037;-73
2021/06/10 07:40:20;;;;;;;21.50;13.95;;;;;;;13.63;83.34;99310.06;4861703;29;20037;-74
2021/06/10 07:42:47;;;;;;;21.70;14.65;;;;;;;13.72;83.28;99316.31;4863189;29;20045;-75
2021/06/10 07:45:14;;;;;;;25.00;15.30;;;;;;;13.70;83.44;99301.28;4876776;29;20053;-72
2021/06/10 07:47:40;;;;;;;27.20;12.95;;;;;;;13.62;83.31;99309.25;4877136;29;20499;-72
2021/06/10 07:50:08;;;;;;;24.35;13.60;;;;;;;13.57;83.49;99308.63;4872986;29;20076;-73
2021/06/10 07:52:35;;;;;;;24.25;12.85;;;;;;;13.56;83.83;99316.06;4878963;29;20533;-77
2021/06/10 07:55:02;;;;;;;25.00;14.13;;;;;;;13.60;83.83;99317.00;4877169;29;20037;-73
2021/06/10 07:57:28;;;;;;;;;;;;;;;13.66;83.93;99320.38;4882471;29;20064;-74
2021/06/10 07:59:54;;;;;;;22.17;11.95;;;;;;;13.62;83.39;99311.22;4878652;29;19931;-77
2021/06/10 08:02:22;;;;;;;21.27;12.43;;;;;;;13.57;83.40;99308.63;4888288;29;20139;-71
2021/06/10 08:04:49;;;;;;;39.75;11.93;;;;;;;13.76;82.71;99313.69;4894631;29;20088;-72
2021/06/10 08:07:15;;;;;;;19.25;10.90;;;;;;;13.72;82.83;99310.00;4895328;29;20578;-72
2021/06/10 08:09:40;;;;;;;18.45;10.73;;;;;;;13.60;82.56;99321.72;4885431;29;20124;-73
2021/06/10 08:12:07;;;;;;;14.82;10.40;;;;;;;13.44;83.04;99301.44;4879738;29;20124;-75
2021/06/10 08:14:34;;;;;;;18.00;9.63;;;;;;;13.55;83.15;99319.97;4855567;29;20397;-75
2021/06/10 08:17:00;;;;;;;15.75;9.57;;;;;;;13.34;83.12;99297.97;4862171;29;20132;-89
2021/06/10 08:19:28;;;;;;;12.60;8.18;;;;;;;13.36;82.81;99305.88;4862357;29;20552;-92
2021/06/10 08:32:40;;;;;;;17.75;9.38;;;;;;;13.05;83.30;99249.34;4898927;29;20055;-94
2021/06/10 08:35:59;;;;;;;15.82;9.30;;;;;;;13.61;82.82;99326.09;4868993;29;20040;-95
2021/06/10 08:48:23;;;;;;;18.67;9.05;;;;;;;13.57;83.19;99341.59;4879615;29;20549;-91
2021/06/10 08:51:14;;;;;;;17.80;9.57;;;;;;;13.65;83.71;99337.22;4816001;29;20053;-89
2021/06/10 08:53:41;;;;;;;20.77;9.30;;;;;;;13.53;83.51;99329.69;4847300;29;20049;-89
2021/06/10 08:56:07;;;;;;;19.30;9.10;;;;;;;13.42;83.45;99317.47;4862537;29;20081;-90
2021/06/10 08:58:34;;;;;;;;;;;;;;;13.61;84.25;99334.31;4832754;29;20045;-75
2021/06/10 09:01:01;;;;;;;15.90;9.65;;;;;;;13.50;84.20;99325.63;4879458;29;19924;-74
2021/06/10 09:03:29;;;;;;;;;;;;;;;13.64;83.78;99344.63;4879284;29;20103;-74
2021/06/10 09:06:02;;;;;;;23.30;10.95;;;;;;;13.60;83.98;99341.72;4879507;29;19999;-74
2021/06/10 09:08:29;;;;;;;19.10;12.85;;;;;;;13.59;84.01;99342.88;4879512;29;20056;-75
2021/06/10 09:11:13;;;;;;;17.88;11.32;;;;;;;13.54;83.46;99343.09;4879509;29;20049;-74
2021/06/10 09:13:42;;;;;;;23.77;15.23;;;;;;;13.65;84.43;99353.69;4877772;29;20052;-74
2021/06/10 09:16:26;;;;;;;24.23;14.10;;;;;;;13.68;84.50;99345.59;4861197;29;20049;-74
2021/06/10 09:18:56;;;;;;;20.52;12.85;;;;;;;13.72;84.55;99348.47;4879306;29;20072;-75
2021/06/10 09:21:29;;;;;;;19.60;10.50;;;;;;;13.71;83.88;99355.91;4878365;29;20071;-75
2021/06/10 09:23:56;;;;;;;13.98;9.32;;;;;;;13.70;83.97;99342.50;4878345;29;20473;-77
2021/06/10 09:26:22;;;;;;;16.38;10.10;;;;;;;13.80;84.21;99353.88;4872545;29;20091;-74
2021/06/10 09:29:03;;;;;;;20.42;9.77;;;;;;;13.78;83.98;99345.19;4860557;29;20514;-75
2021/06/10 09:31:33;;;;;;;20.65;9.75;;;;;;;13.84;83.86;99348.53;4860761;29;20045;-76
2021/06/10 09:34:05;;;;;;;22.33;11.02;;;;;;;13.82;83.84;99340.63;4862763;29;20056;-76
2021/06/10 09:36:39;;;;;;;21.02;10.10;;;;;;;13.91;84.23;99348.00;4877535;29;20033;-78
2021/06/10 09:39:13;;;;;;;16.75;8.77;;;;;;;13.92;83.86;99349.63;4863348;29;20099;-74
2021/06/10 09:42:12;;;;;;;15.85;8.48;;;;;;;13.88;83.86;99355.00;4876751;29;20045;-74
2021/06/10 09:44:45;;;;;;;19.55;9.60;;;;;;;13.96;84.31;99351.38;4877864;29;20100;-76
2021/06/10 09:47:12;;;;;;;15.98;8.40;;;;;;;13.99;83.75;99360.88;4876736;29;20072;-83
2021/06/10 09:49:38;;;;;;;13.05;8.60;;;;;;;13.98;83.99;99362.84;4868196;29;20044;-75
2021/06/10 09:52:05;;;;;;;14.63;9.13;;;;;;;13.93;84.21;99352.03;4875417;29;20044;-74
2021/06/10 09:54:38;;;;;;;18.25;9.55;;;;;;;13.93;84.20;99348.47;4870691;29;20082;-76
2021/06/10 09:57:05;;;;;;;14.98;8.30;;;;;;;14.00;84.02;99349.56;4860518;29;20053;-72
2021/06/10 09:59:51;;;;;;;17.03;9.80;;;;;;;13.98;84.11;99353.78;4868451;29;20050;-73
2021/06/10 10:02:24;;;;;;;20.27;10.18;;;;;;;13.96;84.24;99347.81;4861736;29;20302;-74
2021/06/10 10:05:01;;;;;;;18.80;9.93;;;;;;;14.00;84.17;99354.25;4873993;29;20063;-88
2021/06/10 10:07:31;;;;;;;20.63;10.48;;;;;;;14.03;84.83;99356.31;4878011;29;20041;-80
2021/06/10 10:09:59;;;;;;;21.02;10.95;;;;;;;14.01;84.57;99355.88;4878051;29;20135;-76
2021/06/10 10:12:27;;;;;;;20.13;10.75;;;;;;;13.98;84.67;99351.84;4876964;29;20686;-74
2021/06/10 10:14:55;;;;;;;19.88;11.13;;;;;;;14.09;84.77;99360.50;4859435;29;20109;-75
2021/06/10 10:17:22;;;;;;;16.80;10.48;;;;;;;14.09;84.33;99360.50;4876126;29;20132;-75
2021/06/10 10:19:48;;;;;;;;;;;;;;;14.18;84.75;99363.19;4879130;29;20052;-78
2021/06/10 10:22:15;;;;;;;22.40;11.02;;;;;;;14.13;84.89;99347.69;4878379;29;19923;-78
2021/06/10 10:24:42;;;;;;;25.42;12.30;;;;;;;14.17;84.65;99356.88;4866878;29;20049;-77
2021/06/10 10:27:12;;;;;;;19.50;10.23;;;;;;;14.26;84.32;99360.34;4859692;29;20041;-77
2021/06/10 10:29:44;;;;;;;12.88;9.57;;;;;;;14.26;83.84;99357.59;4862078;29;20050;-79
2021/06/10 10:32:20;;;;;;;22.67;11.85;;;;;;;14.33;84.68;99355.09;4851449;29;20037;-74
2021/06/10 10:34:46;;;;;;;16.92;9.93;;;;;;;14.31;84.16;99356.59;4860474;29;20551;-75
2021/06/10 10:37:21;;;;;;;18.80;11.02;;;;;;;14.21;84.42;99341.31;4859528;29;20038;-75
2021/06/10 10:39:49;;;;;;;19.02;11.32;;;;;;;14.37;84.69;99349.75;4843832;29;20052;-75
2021/06/10 10:42:37;;;;;;;17.75;10.48;;;;;;;14.29;84.38;99348.69;4871751;29;20052;-80
2021/06/10 10:45:18;;;;;;;17.17;12.48;;;;;;;14.34;84.47;99353.19;4876497;29;20060;-80
2021/06/10 10:48:05;;;;;;;15.57;10.98;;;;;;;14.34;84.56;99351.22;4878063;29;20067;-81
2021/06/10 10:50:32;;;;;;;16.90;11.38;;;;;;;14.31;84.62;99351.09;4876765;29;20033;-78
2021/06/10 10:52:59;;;;;;;21.15;11.55;;;;;;;14.38;84.58;99348.59;4877907;29;20040;-86
2021/06/10 10:55:31;;;;;;;18.38;12.02;;;;;;;14.45;84.89;99353.56;4876482;29;20049;-75
2021/06/10 10:58:02;;;;;;;22.45;12.25;;;;;;;14.46;84.71;99357.91;4875912;29;20056;-74
2021/06/10 11:00:56;;;;;;;25.95;12.35;;;;;;;14.47;84.52;99362.25;4877694;29;20567;-80
2021/06/10 11:03:34;;;;;;;19.63;11.43;;;;;;;14.49;84.49;99352.53;4878189;29;20045;-80
2021/06/10 11:06:25;;;;;;;19.67;11.20;;;;;;;14.60;84.37;99354.91;4876774;29;20045;-77
2021/06/10 11:09:15;;;;;;;20.50;12.38;;;;;;;14.59;83.97;99359.59;4864634;29;20518;-76
2021/06/10 11:11:49;;;;;;;22.98;12.05;;;;;;;14.56;84.25;99357.53;4870855;29;20050;-75
2021/06/10 11:14:38;;;;;;;22.60;12.57;;;;;;;14.55;84.56;99359.47;4878197;29;20095;-75
2021/06/10 11:17:18;;;;;;;22.38;13.23;;;;;;;14.57;84.76;99354.44;4869794;29;20567;-75
2021/06/10 11:19:59;;;;;;;26.80;13.05;;;;;;;14.69;84.48;99361.13;4862824;29;20056;-76
2021/06/10 11:22:28;;;;;;;19.50;12.45;;;;;;;14.69;84.12;99353.66;4867147;29;20439;-75
2021/06/10 11:24:54;;;;;;;21.70;12.95;;;;;;;14.69;84.48;99350.91;4862215;29;20109;-76
2021/06/10 11:27:36;;;;;;;23.10;12.10;;;;;;;14.75;83.96;99357.81;4871206;29;20099;-74
2021/06/10 11:30:23;;;;;;;15.90;10.00;;;;;;;14.72;83.45;99354.94;4874041;29;20294;-74
2021/06/10 11:33:10;;;;;;;24.02;12.60;;;;;;;14.73;84.48;99351.84;4869820;29;20050;-74
2021/06/10 11:35:40;;;;;;;20.92;11.82;;;;;;;14.69;83.89;99341.88;4859198;29;20048;-80
2021/06/10 11:38:20;;;;;;;25.17;13.30;;;;;;;14.78;84.36;99350.84;4847001;29;20052;-75
2021/06/10 11:40:55;;;;;;;21.45;13.43;;;;;;;14.78;84.13;99345.34;4874411;29;20093;-84
2021/06/10 11:43:24;;;;;;;24.70;13.40;;;;;;;14.72;84.94;99341.19;4870978;29;20061;-75
2021/06/10 11:45:57;;;;;;;25.45;13.43;;;;;;;14.74;84.68;99341.66;4870158;29;20046;-78
2021/06/10 11:48:36;;;;;;;20.42;12.77;;;;;;;14.79;84.40;99344.97;4864303;29;20041;-75
2021/06/10 11:51:07;;;;;;;23.40;13.15;;;;;;;14.80;84.15;99338.34;4866067;29;20052;-78
2021/06/10 11:53:34;;;;;;;19.63;12.52;;;;;;;14.78;84.14;99331.56;4860898;29;20532;-75
2021/06/10 11:56:03;;;;;;;20.13;12.23;;;;;;;14.79;83.88;99333.97;4871897;29;20041;-76
2021/06/10 11:58:31;;;;;;;20.57;13.23;;;;;;;14.86;84.35;99329.88;4859281;29;20093;-75
2021/06/10 12:01:04;;;;;;;17.63;12.07;;;;;;;14.91;83.73;99335.16;4860332;29;20322;-75
2021/06/10 12:03:35;;;;;;;18.43;11.07;;;;;;;14.91;83.59;99340.66;4880825;29;20474;-74
2021/06/10 12:06:01;;;;;;;17.98;11.77;;;;;;;14.83;83.86;99319.53;4886387;29;20403;-73
2021/06/10 12:08:31;;;;;;;20.93;12.13;;;;;;;14.96;84.11;99324.72;4845441;29;20522;-74
2021/06/10 12:11:13;;;;;;;18.42;12.30;;;;;;;14.96;83.79;99327.47;4875741;29;20045;-73
2021/06/10 12:13:51;;;;;;;21.90;11.88;;;;;;;14.99;83.70;99328.75;4875409;29;20053;-73
2021/06/10 12:16:20;;;;;;;23.00;12.55;;;;;;;15.02;83.42;99325.31;4868859;29;20071;-73
2021/06/10 12:18:49;;;;;;;27.85;15.15;;;;;;;15.00;84.18;99311.09;4854475;29;20097;-77
2021/06/10 12:21:18;;;;;;;27.10;17.38;;;;;;;15.10;83.83;99312.56;4860067;29;20134;-73
2021/06/10 12:23:49;;;;;;;20.65;12.70;;;;;;;15.15;83.22;99323.38;4856552;29;20064;-74
2021/06/10 12:26:25;;;;;;;26.42;13.70;;;;;;;15.18;84.08;99323.47;4887838;29;20142;-83
2021/06/10 12:28:54;;;;;;;23.75;14.27;;;;;;;15.15;83.94;99307.66;4856808;29;20404;-76
2021/06/10 12:31:33;;;;;;;23.05;13.40;;;;;;;15.19;84.22;99329.78;4874618;29;20041;-76
2021/06/10 12:34:02;;;;;;;26.73;15.43;;;;;;;15.22;84.08;99309.81;4873197;29;20589;-74
2021/06/10 12:36:32;;;;;;;26.60;15.40;;;;;;;15.26;84.43;99314.31;4863994;29;20049;-74
2021/06/10 12:39:00;;;;;;;20.40;13.10;;;;;;;15.28;83.89;99319.47;4860179;29;20037;-74
2021/06/10 12:41:29;;;;;;;25.08;14.70;;;;;;;15.35;84.40;99325.22;4857680;29;20419;-74
2021/06/10 12:44:09;;;;;;;19.95;12.40;;;;;;;15.40;83.32;99329.69;4855264;29;20060;-78
2021/06/10 12:46:59;;;;;;;19.73;11.77;;;;;;;15.49;83.38;99322.91;4855559;29;20051;-80
2021/06/10 12:49:40;;;;;;;20.50;12.20;;;;;;;15.57;83.38;99320.38;4868859;29;20101;-73
2021/06/10 12:52:26;;;;;;;17.08;12.05;;;;;;;15.58;82.88;99317.28;4862426;29;20049;-73
2021/06/10 12:55:04;;;;;;;17.98;11.75;;;;;;;15.62;82.82;99314.63;4859655;29;20048;-76
2021/06/10 12:57:33;;;;;;;17.08;10.73;;;;;;;15.63;81.68;99311.53;4869933;29;20045;-73
2021/06/10 13:00:01;;;;;;;21.40;10.48;;;;;;;15.71;82.19;99307.06;4863598;29;20061;-75
2021/06/10 13:02:29;;;;;;;14.93;10.55;;;;;;;15.81;81.31;99305.78;4867800;29;20045;-81
2021/06/10 13:05:01;;;;;;;;;;;;;;;15.81;81.10;99311.31;4874853;29;20087;-80
2021/06/10 13:07:44;;;;;;;16.17;11.27;;;;;;;15.81;82.06;99305.78;4884204;29;19924;-77
2021/06/10 13:10:15;;;;;;;21.50;11.43;;;;;;;15.86;81.31;99306.34;4882839;29;20040;-80
2021/06/10 13:12:49;;;;;;;19.67;10.95;;;;;;;15.90;80.87;99306.47;4878728;29;20045;-75
2021/06/10 13:15:33;;;;;;;14.77;9.95;;;;;;;15.85;80.63;99303.94;4865305;29;20093;-76
2021/06/10 13:18:12;;;;;;;15.48;10.18;;;;;;;15.92;80.77;99302.19;4852857;29;20055;-76
2021/06/10 13:20:53;;;;;;;13.88;8.88;;;;;;;16.03;80.20;99308.03;4853642;29;20042;-75
2021/06/10 13:23:26;;;;;;;13.55;8.35;;;;;;;16.05;79.22;99304.91;4863166;29;20045;-77
2021/06/10 13:26:18;;;;;;;15.27;9.40;;;;;;;16.04;79.37;99301.34;4842252;29;20071;-78
2021/06/10 13:28:48;;;;;;;18.58;8.65;;;;;;;16.00;79.47;99300.47;4869299;29;20036;-75
2021/06/10 13:31:16;;;;;;;17.27;9.50;;;;;;;16.00;79.46;99305.97;4874649;29;20052;-83
2021/06/10 13:33:46;;;;;;;15.48;10.13;;;;;;;16.02;80.07;99317.44;4871452;29;20060;-82
2021/06/10 13:36:20;;;;;;;16.80;9.95;;;;;;;15.95;78.72;99314.47;4862591;29;20102;-80
2021/06/10 13:38:52;;;;;;;12.98;8.40;;;;;;;15.87;78.23;99320.94;4854790;29;20053;-74
2021/06/10 13:41:20;;;;;;;14.05;8.55;;;;;;;15.89;77.62;99329.66;4866435;29;20156;-78
2021/06/10 13:43:48;;;;;;;10.93;7.47;;;;;;;15.73;77.82;99326.84;4867552;29;20057;-74
2021/06/10 13:46:15;;;;;;;14.15;8.57;;;;;;;15.70;78.54;99331.06;4847290;29;20519;-75
2021/06/10 13:48:42;;;;;;;12.10;8.30;;;;;;;15.63;78.49;99327.25;4857317;29;20033;-75
2021/06/10 13:51:09;;;;;;;13.75;8.35;;;;;;;15.55;78.20;99323.47;4848450;29;20042;-75
2021/06/10 13:53:36;;;;;;;13.50;8.95;;;;;;;15.63;79.40;99349.28;4847405;29;20076;-75
2021/06/10 13:56:03;;;;;;;17.55;9.90;;;;;;;15.63;79.22;99350.13;4848673;29;20905;-77
2021/06/10 13:58:30;;;;;;;15.80;10.20;;;;;;;15.57;80.01;99348.75;4835787;29;20101;-80
2021/06/10 14:00:56;;;;;;;16.90;9.15;;;;;;;15.52;79.98;99354.47;4856191;29;20037;-75
2021/06/10 14:03:24;;;;;;;15.63;10.73;;;;;;;15.55;80.28;99364.00;4848961;29;20045;-75
2021/06/10 14:05:50;;;;;;;17.80;9.60;;;;;;;15.45;80.05;99359.75;4848028;29;20088;-86
2021/06/10 14:08:18;;;;;;;20.17;11.73;;;;;;;15.48;80.98;99367.34;4847242;29;20029;-78
2021/06/10 14:10:46;;;;;;;18.55;11.45;;;;;;;15.51;81.05;99372.16;4830435;29;20046;-75
2021/06/10 14:13:13;;;;;;;19.95;11.48;;;;;;;15.48;80.78;99372.84;4847022;29;20038;-75
2021/06/10 14:15:43;;;;;;;17.70;10.23;;;;;;;15.39;80.99;99372.94;4847512;29;20064;-74
2021/06/10 14:18:10;;;;;;;23.80;11.15;;;;;;;15.33;80.88;99348.72;4848720;29;20037;-74
2021/06/10 14:20:37;;;;;;;16.90;11.32;;;;;;;15.40;80.57;99371.81;4845624;29;20056;-78
2021/06/10 14:23:04;;;;;;;14.45;11.13;;;;;;;15.41;80.96;99373.41;4863815;29;20068;-78
2021/06/10 14:25:31;;;;;;;17.60;10.73;;;;;;;15.30;80.98;99369.53;4844849;29;20048;-75
2021/06/10 14:28:02;;;;;;;15.63;10.70;;;;;;;15.28;81.33;99377.31;4854127;29;20037;-75
2021/06/10 14:33:01;;;;;;;19.30;12.52;;;;;;;15.12;82.39;99377.16;4859569;29;20029;-74
2021/06/10 14:35:28;;;;;;;23.33;13.80;;;;;;;15.04;82.91;99361.56;4861962;29;20049;-74
2021/06/10 14:37:58;;;;;;;26.65;13.73;;;;;;;15.15;83.18;99387.50;4857234;29;20064;-79
2021/06/10 14:40:24;;;;;;;19.15;12.55;;;;;;;15.11;83.08;99385.78;4858946;29;20083;-75
2021/06/10 14:42:51;;;;;;;21.33;13.97;;;;;;;15.06;83.44;99378.53;4845152;29;20042;-75
2021/06/10 14:45:18;;;;;;;22.02;13.48;;;;;;;15.09;83.54;99382.56;4856895;29;20056;-75
2021/06/10 14:47:48;;;;;;;22.30;13.98;;;;;;;15.07;83.17;99382.91;4853355;29;20136;-74
2021/06/10 14:50:15;;;;;;;20.45;11.82;;;;;;;15.06;82.78;99385.97;4856228;29;20139;-75
2021/06/10 14:52:42;;;;;;;20.77;13.70;;;;;;;15.09;83.10;99382.56;4847768;29;20049;-75
2021/06/10 14:55:10;;;;;;;23.20;13.57;;;;;;;15.14;83.01;99383.16;4836462;29;20128;-75
2021/06/10 14:57:37;;;;;;;21.63;14.05;;;;;;;15.11;83.16;99375.56;4859853;29;20068;-75
2021/06/10 15:00:10;;;;;;;28.00;16.35;;;;;;;15.12;83.46;99379.91;4864050;29;20152;-82
2021/06/10 15:02:39;;;;;;;24.63;16.10;;;;;;;15.09;83.32;99383.34;4839269;29;20057;-73
2021/06/10 15:05:05;;;;;;;21.08;14.85;;;;;;;15.04;83.35;99373.38;4836968;29;20424;-73
2021/06/10 15:07:32;;;;;;;21.50;13.13;;;;;;;15.12;82.44;99381.88;4851295;29;20037;-73
2021/06/10 15:09:58;;;;;;;24.23;12.18;;;;;;;15.12;82.51;99376.38;4875132;29;20041;-76
2021/06/10 15:12:25;;;;;;;15.15;11.13;;;;;;;14.97;82.17;99359.38;4875589;29;20446;-75
2021/06/10 15:14:51;;;;;;;21.85;11.73;;;;;;;15.00;82.03;99361.44;4860766;29;20048;-82
2021/06/10 15:17:18;;;;;;;21.57;13.57;;;;;;;15.10;82.56;99365.72;4861595;29;20495;-74
2021/06/10 15:19:44;;;;;;;19.90;12.15;;;;;;;15.21;82.28;99377.88;4875676;29;20136;-74
2021/06/10 15:22:11;;;;;;;16.45;12.25;;;;;;;15.21;82.54;99380.63;4861489;29;20043;-78
2021/06/10 15:24:37;;;;;;;19.83;14.53;;;;;;;15.16;82.61;99371.78;4878099;29;20057;-74
2021/06/10 15:27:04;;;;;;;17.00;13.02;;;;;;;15.06;82.25;99370.25;4883258;29;20403;-74
2021/06/10 15:29:32;;;;;;;26.08;18.15;;;;;;;15.08;82.77;99370.75;4889299;29;20045;-74
2021/06/10 15:32:00;;;;;;;24.10;16.60;;;;;;;15.08;82.32;99379.00;4875446;29;20049;-73
2021/06/10 15:34:26;;;;;;;20.85;15.15;;;;;;;15.08;82.89;99376.25;4846208;29;20049;-84
2021/06/10 15:36:52;;;;;;;21.37;13.10;;;;;;;15.00;82.76;99372.47;4878002;29;20041;-73
2021/06/10 15:39:18;;;;;;;20.85;12.85;;;;;;;14.96;82.85;99376.22;4880521;29;20105;-74
2021/06/10 15:41:47;;;;;;;18.08;12.90;;;;;;;14.86;82.55;99369.19;4869982;29;20128;-73
2021/06/10 15:44:13;;;;;;;19.48;13.73;;;;;;;14.88;82.52;99371.63;4862290;29;20153;-73
2021/06/10 15:46:40;;;;;;;16.33;11.75;;;;;;;14.85;82.33;99362.09;4863587;29;20102;-81
2021/06/10 15:49:06;;;;;;;17.95;12.73;;;;;;;14.89;81.83;99367.72;4875526;29;20041;-77
2021/06/10 15:51:33;;;;;;;;;;;;;;;14.95;81.94;99375.41;4850244;29;20048;-75
2021/06/10 15:54:00;;;;;;;23.27;12.95;;;;;;;14.89;81.94;99368.50;4871664;29;20000;-77
2021/06/10 15:56:26;;;;;;;17.95;11.60;;;;;;;14.83;81.62;99366.31;4874459;29;20036;-75
2021/06/10 15:58:52;;;;;;;18.48;12.95;;;;;;;14.83;82.19;99372.63;4869440;29;20226;-77
2021/06/10 16:01:19;;;;;;;17.13;11.93;;;;;;;14.85;82.05;99366.78;4872527;29;20567;-75
2021/06/10 16:03:45;;;;;;;14.85;11.63;;;;;;;14.75;82.21;99366.06;4867023;29;20046;-77
2021/06/10 16:06:12;;;;;;;15.57;11.38;;;;;;;14.69;82.33;99363.88;4861923;29;20044;-75
2021/06/10 16:08:38;;;;;;;;;;;;;;;14.75;82.58;99359.78;4863139;29;20045;-76
2021/06/10 16:11:08;;;;;;;17.00;11.32;;;;;;;14.68;82.55;99352.06;4875876;29;19924;-75
2021/06/10 16:13:34;;;;;;;19.05;12.05;;;;;;;14.63;82.98;99357.78;4871197;29;20052;-74
2021/06/10 16:16:00;;;;;;;25.40;15.75;;;;;;;14.65;83.36;99351.94;4882908;29;20041;-72
2021/06/10 16:18:26;;;;;;;20.50;12.32;;;;;;;14.61;83.32;99349.06;4856626;29;20052;-72
2021/06/10 16:20:52;;;;;;;19.02;12.05;;;;;;;14.61;82.90;99342.78;4884100;29;20477;-77
2021/06/10 16:23:18;;;;;;;17.10;12.30;;;;;;;14.47;83.04;99324.59;4893090;29;20443;-73
2021/06/10 16:25:45;;;;;;;20.38;12.48;;;;;;;14.55;83.19;99336.66;4872324;29;20088;-82
2021/06/10 16:28:11;;;;;;;21.65;13.60;;;;;;;14.49;83.08;99343.47;4869420;29;20045;-73
2021/06/10 16:30:38;;;;;;;18.75;13.25;;;;;;;14.57;83.27;99348.16;4861629;29;20288;-76
2021/06/10 16:33:04;;;;;;;18.40;13.93;;;;;;;14.45;83.12;99334.31;4876467;29;20033;-78
2021/06/10 16:35:30;;;;;;;25.60;16.53;;;;;;;14.53;83.42;99355.44;4879397;29;20135;-73
2021/06/10 16:37:58;;;;;;;21.92;16.33;;;;;;;14.55;83.18;99351.22;4879252;29;20417;-73
2021/06/10 16:40:26;;;;;;;23.92;16.38;;;;;;;14.53;83.19;99348.00;4866474;29;20049;-73
2021/06/10 16:42:53;;;;;;;36.55;23.00;;;;;;;14.45;83.15;99326.84;4877431;29;20093;-75
2021/06/10 16:45:22;;;;;;;31.05;22.38;;;;;;;14.47;83.38;99335.59;4870552;29;20053;-75
2021/06/10 16:47:48;;;;;;;33.58;22.30;;;;;;;14.54;83.36;99346.06;4852165;29;20037;-81
2021/06/10 16:50:17;;;;;;;27.23;19.43;;;;;;;14.63;83.20;99351.47;4853011;29;20137;-76
2021/06/10 16:52:43;;;;;;;30.25;22.38;;;;;;;14.60;82.93;99352.16;4867045;29;20041;-83
2021/06/10 16:55:11;;;;;;;22.60;16.58;;;;;;;14.63;82.84;99349.50;4861832;29;20075;-75
2021/06/10 16:57:38;;;;;;;27.40;18.88;;;;;;;14.59;83.20;99348.59;4877170;29;20092;-78
2021/06/10 17:00:24;;;;;;;28.92;18.77;;;;;;;14.55;83.29;99344.91;4868707;29;20045;-76
2021/06/10 17:05:29;;;;;;;;;;;;;;;14.59;82.90;99351.34;4870758;29;20041;-80
2021/06/10 17:07:57;;;;;;;20.08;14.75;;;;;;;14.50;82.64;99342.34;4883938;29;19928;-81
2021/06/10 17:10:24;;;;;;;27.33;16.85;;;;;;;14.58;83.01;99352.50;4871171;29;20045;-78
2021/06/10 17:12:51;;;;;;;18.95;14.75;;;;;;;14.49;82.59;99349.00;4863746;29;20043;-78
2021/06/10 17:15:18;;;;;;;21.85;16.90;;;;;;;14.50;83.02;99339.59;4872529;29;20187;-79
2021/06/10 17:17:45;;;;;;;32.42;17.27;;;;;;;14.42;83.46;99344.03;4855727;29;20049;-84
2021/06/10 17:20:14;;;;;;;28.90;19.40;;;;;;;14.44;83.09;99340.97;4849702;29;20045;-78
2021/06/10 17:22:40;;;;;;;37.33;23.55;;;;;;;14.48;83.27;99345.44;4866201;29;20038;-84